Time;durP1;ratioP1;P1;durP2;ratioP2;P2;SDS_P1;SDS_P2;PMS_P1;PMS_P2;Temp;Humidity;BMP_temperature;BMP_pressure;BME280_temperature;BME280_humidity;BME280_pressure;Samples;Min_cycle;Max_cycle;Signal;HPM_P1;HPM_P2
2021/09/05 00:01:15;;;;;;;7.93;5.03;;;;;;;11.64;93.34;98621.13;5026040;28;20025;-66
2021/09/05 00:03:40;;;;;;;8.85;5.15;;;;;;;11.70;93.81;98621.00;5025720;28;20046;-66
2021/09/05 00:06:06;;;;;;;7.82;5.40;;;;;;;11.80;93.83;98627.78;5024696;28;20367;-66
2021/09/05 00:08:31;;;;;;;8.52;5.50;;;;;;;11.88;93.45;98619.69;5024420;28;20021;-66
2021/09/05 00:10:57;;;;;;;8.75;5.20;;;;;;;11.87;92.85;98624.06;5025000;28;20021;-66
2021/09/05 00:13:22;;;;;;;6.65;4.55;;;;;;;11.83;92.27;98617.16;5025022;28;20041;-66
2021/09/05 00:15:47;;;;;;;7.00;4.28;;;;;;;11.76;92.56;98620.84;5024732;28;20092;-66
2021/09/05 00:18:13;;;;;;;9.93;5.35;;;;;;;11.64;92.35;98612.38;5024666;28;20064;-66
2021/09/05 00:20:38;;;;;;;7.07;4.47;;;;;;;11.68;92.64;98617.50;5024724;28;20025;-66
2021/09/05 00:23:04;;;;;;;7.25;4.25;;;;;;;11.66;92.21;98613.19;5024580;28;20069;-66
2021/09/05 00:25:30;;;;;;;7.75;5.00;;;;;;;11.58;92.45;98615.97;5024901;28;20041;-66
2021/09/05 00:27:57;;;;;;;9.50;5.38;;;;;;;11.43;92.86;98616.34;5024665;28;20017;-66
2021/09/05 00:30:23;;;;;;;7.07;4.25;;;;;;;11.47;93.31;98612.75;5024454;28;20081;-66
2021/09/05 00:32:48;;;;;;;6.95;4.32;;;;;;;11.22;93.06;98608.91;5024510;28;20305;-66
2021/09/05 00:35:14;;;;;;;6.43;4.50;;;;;;;11.29;93.72;98607.88;5024367;28;20084;-66
2021/09/05 00:37:40;;;;;;;7.43;4.80;;;;;;;11.44;93.51;98599.63;5024311;28;20021;-66
2021/09/05 00:40:06;;;;;;;6.78;4.72;;;;;;;11.48;93.52;98608.34;5024215;28;20022;-66
2021/09/05 00:42:32;;;;;;;8.48;5.00;;;;;;;11.46;93.03;98608.38;5024639;28;20021;-66
2021/09/05 00:44:57;;;;;;;6.85;4.65;;;;;;;11.45;92.67;98603.16;5024135;28;20092;-66
2021/09/05 00:47:22;;;;;;;9.10;5.30;;;;;;;11.40;92.59;98603.25;5024132;28;20072;-66
2021/09/05 00:49:48;;;;;;;10.32;5.07;;;;;;;11.34;92.89;98600.75;5024275;28;20041;-66
2021/09/05 00:52:14;;;;;;;8.52;5.20;;;;;;;11.30;92.26;98604.34;5024425;28;20029;-66
2021/09/05 00:54:43;;;;;;;8.68;5.65;;;;;;;11.11;93.40;98603.03;5024126;28;20018;-66
2021/09/05 00:57:13;;;;;;;7.50;4.88;;;;;;;11.18;93.58;98604.63;5024081;28;20060;-66
2021/09/05 00:59:39;;;;;;;11.18;5.22;;;;;;;11.07;93.36;98600.50;5006422;28;20309;-66
2021/09/05 01:02:05;;;;;;;11.07;4.50;;;;;;;10.98;93.51;98616.50;5024030;28;20105;-66
2021/09/05 01:04:31;;;;;;;7.90;4.28;;;;;;;11.01;93.73;98617.28;5023503;28;20084;-66
2021/09/05 01:06:56;;;;;;;8.85;5.07;;;;;;;10.91;93.70;98611.34;5023978;28;20273;-66
2021/09/05 01:09:22;;;;;;;9.35;5.05;;;;;;;10.90;93.87;98614.03;5005775;28;20064;-66
2021/09/05 01:11:49;;;;;;;12.27;5.88;;;;;;;10.80;93.44;98621.22;5023710;28;20201;-66
2021/09/05 01:14:15;;;;;;;6.43;4.53;;;;;;;10.94;92.66;98626.22;5023701;28;20022;-66
2021/09/05 01:16:41;;;;;;;16.27;5.93;;;;;;;10.80;92.79;98623.84;5005888;28;20028;-68
2021/09/05 01:19:07;;;;;;;10.18;4.90;;;;;;;10.73;93.50;98621.41;5023328;28;20369;-68
2021/09/05 01:21:33;;;;;;;8.57;5.53;;;;;;;10.65;93.64;98612.78;5024821;28;20032;-68
2021/09/05 01:24:00;;;;;;;9.23;5.22;;;;;;;10.65;94.76;98618.03;5023552;28;20018;-67
2021/09/05 01:26:28;;;;;;;9.68;4.78;;;;;;;10.70;94.28;98616.19;5022223;28;20268;-67
2021/09/05 01:28:54;;;;;;;8.35;5.15;;;;;;;10.62;93.87;98618.97;5022668;28;20089;-67
2021/09/05 01:31:20;;;;;;;7.13;4.65;;;;;;;10.64;93.55;98626.84;5022646;28;20081;-67
2021/09/05 01:33:46;;;;;;;5.72;3.67;;;;;;;10.63;93.46;98625.09;5020842;28;20040;-67
2021/09/05 01:36:11;;;;;;;6.68;4.20;;;;;;;10.65;93.85;98629.44;5022509;28;20339;-67
2021/09/05 01:38:37;;;;;;;6.75;4.50;;;;;;;10.83;94.07;98633.47;5023451;28;20067;-67
2021/09/05 01:41:02;;;;;;;7.47;4.90;;;;;;;10.86;94.29;98633.41;5023960;28;20107;-67
2021/09/05 01:43:28;;;;;;;5.75;3.65;;;;;;;10.93;94.37;98635.91;5024251;28;20024;-67
2021/09/05 01:45:53;;;;;;;4.63;3.25;;;;;;;10.83;93.30;98641.38;5024196;28;20025;-67
2021/09/05 01:48:19;;;;;;;7.18;4.15;;;;;;;10.65;92.81;98644.38;5024200;28;20022;-67
2021/09/05 01:50:44;;;;;;;9.88;4.72;;;;;;;10.51;93.77;98641.16;5024131;28;20317;-67
2021/09/05 01:53:09;;;;;;;8.00;5.05;;;;;;;10.43;94.51;98643.03;5024126;28;20026;-67
2021/09/05 01:55:35;;;;;;;8.13;5.47;;;;;;;10.46;94.53;98648.25;5024137;28;20025;-67
2021/09/05 01:58:00;;;;;;;9.43;4.55;;;;;;;10.51;93.70;98649.03;5024111;28;20350;-67
2021/09/05 02:00:26;;;;;;;8.68;5.00;;;;;;;10.52;94.16;98649.00;5023993;28;20026;-67
2021/09/05 02:02:51;;;;;;;7.22;4.45;;;;;;;10.46;93.67;98648.25;5023825;28;20332;-67
2021/09/05 02:05:17;;;;;;;6.38;4.22;;;;;;;10.43;93.49;98649.19;5024068;28;20022;-67
2021/09/05 02:07:43;;;;;;;8.73;4.47;;;;;;;10.35;93.85;98650.22;5024280;28;20085;-67
2021/09/05 02:10:09;;;;;;;5.05;3.22;;;;;;;10.43;93.66;98645.66;5023984;28;20025;-67
2021/09/05 02:12:34;;;;;;;5.63;3.83;;;;;;;10.51;93.32;98647.25;5023942;28;20033;-67
2021/09/05 02:14:59;;;;;;;8.70;4.70;;;;;;;10.54;93.50;98651.63;5023941;28;20064;-67
2021/09/05 02:17:25;;;;;;;7.40;4.03;;;;;;;10.49;92.99;98653.44;5023930;28;20076;-67
2021/09/05 02:19:50;;;;;;;5.82;3.88;;;;;;;10.42;93.02;98651.84;5023852;28;20034;-67
2021/09/05 02:22:16;;;;;;;5.38;3.83;;;;;;;10.32;93.33;98655.53;5023856;28;20325;-67
2021/09/05 02:24:41;;;;;;;6.07;4.28;;;;;;;10.32;94.29;98658.16;5023840;28;20033;-67
2021/09/05 02:27:06;;;;;;;6.53;3.90;;;;;;;10.30;93.42;98662.56;5023820;28;20125;-67
2021/09/05 02:29:32;;;;;;;6.68;3.95;;;;;;;10.28;92.94;98659.97;5023777;28;20022;-67
2021/09/05 02:31:58;;;;;;;6.35;3.90;;;;;;;10.25;93.20;98664.44;5027452;28;20069;-67
2021/09/05 02:34:24;;;;;;;6.45;3.92;;;;;;;10.13;93.57;98664.66;5027630;28;20081;-67
2021/09/05 02:36:49;;;;;;;6.63;3.53;;;;;;;10.18;93.74;98665.41;5027643;28;20321;-67
2021/09/05 02:39:15;;;;;;;6.45;3.60;;;;;;;10.27;93.30;98662.63;5027447;28;20033;-67
2021/09/05 02:41:40;;;;;;;6.15;4.30;;;;;;;10.14;92.90;98653.22;5027532;28;20022;-67
2021/09/05 02:44:05;;;;;;;6.68;4.28;;;;;;;10.19;93.49;98665.38;5027423;28;20322;-67
2021/09/05 02:46:31;;;;;;;7.63;4.35;;;;;;;10.26;93.46;98653.00;5027404;28;20033;-67
2021/09/05 02:48:56;;;;;;;8.38;4.70;;;;;;;10.21;92.97;98662.72;5027722;28;20060;-67
2021/09/05 02:51:21;;;;;;;7.88;4.15;;;;;;;10.24;93.32;98657.41;5027289;28;20021;-67
2021/09/05 02:53:47;;;;;;;8.00;4.18;;;;;;;10.32;93.12;98658.16;5027305;28;20105;-67
2021/09/05 02:56:12;;;;;;;6.80;3.92;;;;;;;10.32;93.34;98652.91;5027199;28;20022;-67
2021/09/05 02:58:39;;;;;;;12.70;4.57;;;;;;;10.20;92.78;98661.00;5027179;28;20250;-67
2021/09/05 03:01:05;;;;;;;8.25;4.75;;;;;;;10.07;92.66;98649.84;5027077;28;20030;-67
2021/09/05 03:03:31;;;;;;;7.03;4.50;;;;;;;10.18;93.86;98657.53;5026871;28;20141;-67
2021/09/05 03:05:56;;;;;;;10.73;4.72;;;;;;;10.32;94.07;98651.13;5027034;28;20096;-67
2021/09/05 03:08:21;;;;;;;7.85;5.15;;;;;;;10.29;93.17;98656.44;5027035;28;20018;-67
2021/09/05 03:10:47;;;;;;;10.95;4.70;;;;;;;10.21;93.06;98646.94;5027196;28;20048;-67
2021/09/05 03:13:12;;;;;;;8.27;4.70;;;;;;;10.25;93.35;98653.91;5026898;28;20030;-67
2021/09/05 03:15:38;;;;;;;8.05;4.93;;;;;;;10.28;93.09;98656.47;5026882;28;20090;-67
2021/09/05 03:18:03;;;;;;;10.40;4.88;;;;;;;10.27;92.42;98657.38;5027063;28;20049;-67
2021/09/05 03:20:29;;;;;;;6.90;4.40;;;;;;;10.14;92.74;98658.47;5026654;28;20064;-67
2021/09/05 03:22:54;;;;;;;10.45;5.13;;;;;;;10.02;93.97;98656.00;5026717;28;20021;-67
2021/09/05 03:25:19;;;;;;;7.45;4.97;;;;;;;9.98;94.00;98654.34;5026708;28;20347;-67
2021/09/05 03:27:45;;;;;;;6.78;4.32;;;;;;;10.07;93.10;98656.84;5026659;28;20026;-67
2021/09/05 03:30:10;;;;;;;6.82;4.28;;;;;;;9.91;92.76;98658.81;5026559;28;20010;-67
2021/09/05 03:32:36;;;;;;;6.72;4.03;;;;;;;9.90;93.27;98661.50;5026546;28;20056;-67
2021/09/05 03:35:02;;;;;;;11.05;4.47;;;;;;;9.91;92.71;98663.22;5026507;28;20063;-67
2021/09/05 03:37:27;;;;;;;9.05;4.78;;;;;;;9.87;92.72;98666.81;5026475;28;20064;-67
2021/09/05 03:39:53;;;;;;;6.53;4.10;;;;;;;9.94;93.18;98656.13;5026329;28;20021;-67
2021/09/05 03:42:18;;;;;;;9.25;4.20;;;;;;;9.95;93.13;98660.53;5026149;28;20022;-67
2021/09/05 03:44:43;;;;;;;8.00;4.75;;;;;;;9.72;93.29;98661.78;5026309;28;20100;-67
2021/09/05 03:47:09;;;;;;;11.98;4.75;;;;;;;9.75;93.44;98656.47;5026271;28;20017;-67
2021/09/05 03:49:34;;;;;;;9.00;4.53;;;;;;;9.85;94.16;98663.31;5026236;28;20025;-67
2021/09/05 03:52:00;;;;;;;13.07;4.72;;;;;;;9.86;93.34;98670.31;5026438;28;20021;-67
2021/09/05 03:54:26;;;;;;;5.90;3.85;;;;;;;9.74;92.94;98670.50;5026184;28;20018;-67
2021/09/05 03:56:51;;;;;;;8.38;3.90;;;;;;;9.72;92.77;98674.91;5026110;28;20321;-67
2021/09/05 03:59:16;;;;;;;4.65;3.17;;;;;;;9.67;93.23;98668.84;5008497;28;20033;-67
2021/09/05 04:01:42;;;;;;;4.93;3.40;;;;;;;9.65;92.88;98679.38;5026025;28;20025;-67
2021/09/05 04:04:07;;;;;;;5.30;3.70;;;;;;;9.62;93.53;98681.22;5025777;28;20034;-67
2021/09/05 04:06:33;;;;;;;5.82;3.60;;;;;;;9.65;93.63;98683.78;5008464;28;20018;-67
2021/09/05 04:09:08;;;;;;;6.93;3.88;;;;;;;9.60;93.77;98672.47;5025908;28;20021;-67
2021/09/05 04:11:34;;;;;;;5.85;3.88;;;;;;;9.72;93.07;98677.56;5025898;28;20022;-67
2021/09/05 04:13:59;;;;;;;8.15;4.28;;;;;;;9.77;92.23;98673.94;5025777;28;20313;-67
2021/09/05 04:16:25;;;;;;;8.15;4.40;;;;;;;9.72;92.58;98677.56;5025712;28;20029;-67
2021/09/05 04:18:50;;;;;;;6.03;4.03;;;;;;;9.51;93.35;98685.75;5008109;28;20030;-67
2021/09/05 04:21:15;;;;;;;5.57;3.88;;;;;;;9.50;92.72;98686.63;5025651;28;20247;-67
2021/09/05 04:23:41;;;;;;;6.28;4.38;;;;;;;9.55;93.51;98685.69;5025552;28;20026;-67
2021/09/05 04:26:06;;;;;;;4.43;3.17;;;;;;;9.59;93.57;98684.72;5025548;28;20068;-67
2021/09/05 04:28:32;;;;;;;4.20;3.22;;;;;;;9.72;93.52;98688.06;5025505;28;20093;-67
2021/09/05 04:30:57;;;;;;;4.60;3.38;;;;;;;9.79;93.00;98694.97;5025458;28;20045;-67
2021/09/05 04:33:22;;;;;;;8.02;4.00;;;;;;;9.74;92.98;98696.78;5025515;28;20026;-67
2021/09/05 04:35:48;;;;;;;6.68;3.90;;;;;;;9.66;93.37;98688.16;5025363;28;20030;-67
2021/09/05 04:38:13;;;;;;;7.70;4.40;;;;;;;9.81;93.65;98693.19;5025320;28;20089;-67
2021/09/05 04:40:39;;;;;;;7.13;4.50;;;;;;;9.69;93.15;98688.09;5025190;28;20026;-67
2021/09/05 04:43:04;;;;;;;7.45;4.20;;;;;;;9.73;93.63;98689.78;5025195;28;20026;-67
2021/09/05 04:45:29;;;;;;;7.88;4.13;;;;;;;9.85;93.46;98698.38;5025196;28;20252;-67
2021/09/05 04:47:55;;;;;;;6.95;4.72;;;;;;;9.73;93.17;98697.66;5025186;28;20029;-67
2021/09/05 04:50:20;;;;;;;7.80;4.20;;;;;;;9.74;93.38;98699.41;5025136;28;20217;-67
2021/09/05 04:52:46;;;;;;;9.05;5.30;;;;;;;9.72;92.48;98701.22;5024705;28;20080;-67
2021/09/05 04:55:11;;;;;;;9.65;4.72;;;;;;;9.66;92.88;98703.91;5007456;28;20026;-67
2021/09/05 04:57:36;;;;;;;5.93;4.20;;;;;;;9.64;92.85;98703.06;5024984;28;20029;-67
2021/09/05 05:00:03;;;;;;;9.60;5.13;;;;;;;9.61;93.27;98705.72;5024877;28;20225;-67
2021/09/05 05:02:29;;;;;;;8.00;5.18;;;;;;;9.66;93.64;98717.06;5024749;28;20030;-67
2021/09/05 05:04:54;;;;;;;6.60;4.43;;;;;;;9.73;93.07;98716.06;5024715;28;20281;-67
2021/09/05 05:07:20;;;;;;;7.82;3.92;;;;;;;9.73;92.69;98718.69;5024805;28;20025;-67
2021/09/05 05:09:45;;;;;;;8.15;4.20;;;;;;;9.78;92.31;98722.16;5024761;28;20128;-67
2021/09/05 05:12:12;;;;;;;8.23;4.88;;;;;;;9.73;93.03;98729.22;5024737;28;20026;-67
2021/09/05 05:14:38;;;;;;;11.43;5.60;;;;;;;9.69;93.24;98725.78;5024691;28;20037;-67
2021/09/05 05:17:03;;;;;;;8.00;4.72;;;;;;;9.75;92.71;98722.19;5024634;28;20025;-67
2021/09/05 05:19:29;;;;;;;7.90;4.80;;;;;;;9.70;93.11;98721.38;5024553;28;20376;-67
2021/09/05 05:21:54;;;;;;;7.15;4.45;;;;;;;9.86;92.44;98723.75;5024537;28;20026;-67
2021/09/05 05:24:19;;;;;;;8.38;4.50;;;;;;;9.83;92.38;98722.94;5024554;28;20022;-67
2021/09/05 05:26:45;;;;;;;6.85;4.30;;;;;;;9.81;92.92;98729.97;5024490;28;20080;-67
2021/09/05 05:29:10;;;;;;;10.23;4.18;;;;;;;9.88;92.66;98726.38;5024447;28;20081;-67
2021/09/05 05:31:35;;;;;;;11.10;4.40;;;;;;;10.08;92.48;98729.59;5024408;28;20026;-67
2021/09/05 05:34:01;;;;;;;7.22;4.18;;;;;;;10.33;92.29;98741.44;5024407;28;20195;-67
2021/09/05 05:36:26;;;;;;;6.10;3.97;;;;;;;10.85;91.37;98736.97;5024342;28;20036;-67
2021/09/05 05:38:52;;;;;;;5.07;3.47;;;;;;;11.32;89.55;98734.28;5024385;28;20221;-67
2021/09/05 05:41:19;;;;;;;8.25;4.00;;;;;;;11.53;88.66;98736.47;5024334;28;20028;-67
2021/09/05 05:43:44;;;;;;;9.63;3.63;;;;;;;11.98;87.45;98730.22;5024300;28;20099;-67
2021/09/05 05:46:10;;;;;;;6.05;3.60;;;;;;;12.49;85.74;98736.84;5024243;28;20022;-67
2021/09/05 05:48:35;;;;;;;5.43;3.20;;;;;;;12.56;84.89;98737.59;5024209;28;20028;-67
2021/09/05 05:51:01;;;;;;;7.75;3.10;;;;;;;12.28;85.73;98745.28;5024208;28;20021;-67
2021/09/05 05:53:26;;;;;;;6.13;3.65;;;;;;;12.12;86.29;98740.44;5024441;28;20029;-65
2021/09/05 05:55:52;;;;;;;5.05;3.33;;;;;;;12.01;86.34;98742.44;5024118;28;20340;-65
2021/09/05 05:58:17;;;;;;;6.45;4.05;;;;;;;12.42;85.60;98745.84;5024111;28;20029;-65
2021/09/05 06:00:43;;;;;;;4.55;3.30;;;;;;;12.82;84.41;98749.16;5024015;28;20331;-65
2021/09/05 06:03:09;;;;;;;6.07;3.55;;;;;;;12.62;84.72;98748.84;5023846;28;20073;-65
2021/09/05 06:05:34;;;;;;;6.47;3.75;;;;;;;12.58;85.43;98754.22;5027559;28;20325;-65
2021/09/05 06:08:03;;;;;;;10.00;3.65;;;;;;;12.50;86.28;98762.34;5028141;28;20033;-65
2021/09/05 06:10:30;;;;;;;5.10;3.50;;;;;;;12.36;85.73;98761.81;5028049;28;20321;-65
2021/09/05 06:12:55;;;;;;;8.05;4.13;;;;;;;12.39;86.09;98756.47;5028054;28;20026;-65
2021/09/05 06:15:21;;;;;;;6.53;3.88;;;;;;;12.60;85.78;98766.47;5028061;28;20038;-65
2021/09/05 06:17:47;;;;;;;9.07;3.90;;;;;;;13.02;83.78;98757.50;5027961;28;20033;-65
2021/09/05 06:20:13;;;;;;;7.82;4.45;;;;;;;13.93;81.53;98757.47;5027837;28;20022;-65
2021/09/05 06:22:38;;;;;;;11.48;4.65;;;;;;;14.09;82.09;98753.44;5027866;28;20321;-65
2021/09/05 06:25:04;;;;;;;8.00;5.05;;;;;;;14.98;79.82;98759.28;5027802;28;20037;-65
2021/09/05 06:27:29;;;;;;;5.82;4.43;;;;;;;15.15;78.90;98762.19;5027752;28;20030;-65
2021/09/05 06:29:55;;;;;;;9.75;4.80;;;;;;;15.76;76.37;98760.88;5027769;28;20085;-65
2021/09/05 06:32:20;;;;;;;7.22;4.38;;;;;;;16.41;75.52;98762.66;5027695;28;20022;-65
2021/09/05 06:34:46;;;;;;;8.00;5.15;;;;;;;16.50;73.81;98762.31;5027654;28;20033;-65
2021/09/05 06:37:11;;;;;;;10.52;4.65;;;;;;;16.61;74.68;98765.38;5027583;28;20068;-65
2021/09/05 06:39:36;;;;;;;11.02;4.97;;;;;;;17.19;73.95;98766.44;5027457;28;20360;-65
2021/09/05 06:42:02;;;;;;;7.85;4.38;;;;;;;17.99;71.30;98770.78;5027489;28;20324;-65
2021/09/05 06:44:27;;;;;;;9.10;5.25;;;;;;;18.51;69.46;98768.25;5027496;28;20045;-65
2021/09/05 06:46:53;;;;;;;6.88;4.55;;;;;;;18.80;69.41;98773.00;5027426;28;20220;-65
2021/09/05 06:49:18;;;;;;;11.23;5.40;;;;;;;19.12;68.54;98771.41;5027379;28;20029;-65
2021/09/05 06:51:44;;;;;;;8.88;5.05;;;;;;;19.66;67.57;98771.19;5027334;28;20252;-65
2021/09/05 06:54:09;;;;;;;10.30;5.13;;;;;;;19.66;67.38;98773.88;5027250;28;20032;-65
2021/09/05 06:56:35;;;;;;;8.38;5.57;;;;;;;18.76;69.64;98779.44;5027271;28;20022;-65
2021/09/05 06:59:00;;;;;;;8.63;5.88;;;;;;;17.70;62.52;98781.91;5027073;28;20336;-65
2021/09/05 07:01:25;;;;;;;12.05;5.85;;;;;;;16.62;75.40;98780.44;5027131;28;20101;-65
2021/09/05 07:03:51;;;;;;;16.95;6.25;;;;;;;16.12;77.93;98786.88;5026941;28;20033;-65
2021/09/05 07:06:16;;;;;;;13.98;6.00;;;;;;;16.45;78.00;98788.19;5027085;28;20262;-65
2021/09/05 07:08:42;;;;;;;10.43;6.45;;;;;;;16.84;76.72;98793.69;5027045;28;20321;-65
2021/09/05 07:11:08;;;;;;;11.80;6.60;;;;;;;17.35;75.27;98795.91;5026954;28;20018;-65
2021/09/05 07:13:33;;;;;;;10.90;6.63;;;;;;;17.41;77.43;98798.28;5026896;28;20093;-65
2021/09/05 07:15:58;;;;;;;10.88;5.53;;;;;;;17.68;76.23;98789.13;5026264;28;20024;-65
2021/09/05 07:18:24;;;;;;;10.57;5.93;;;;;;;18.97;71.92;98788.16;5026847;28;20376;-65
2021/09/05 07:20:50;;;;;;;12.05;7.63;;;;;;;19.47;70.30;98789.16;5026727;28;20032;-65
2021/09/05 07:23:15;;;;;;;12.75;7.75;;;;;;;19.70;70.69;98778.09;5009284;28;20045;-65
2021/09/05 07:25:40;;;;;;;11.10;7.45;;;;;;;19.20;72.13;98785.19;5026700;28;20080;-65
2021/09/05 07:28:06;;;;;;;14.57;9.07;;;;;;;19.71;72.00;98782.47;5026663;28;20213;-65
2021/09/05 07:30:31;;;;;;;18.88;9.73;;;;;;;20.44;70.40;98774.84;5026632;28;20017;-65
2021/09/05 07:32:57;;;;;;;16.75;9.50;;;;;;;20.89;68.43;98782.91;5026594;28;20308;-65
2021/09/05 07:35:22;;;;;;;20.95;9.57;;;;;;;21.29;68.26;98786.78;5026546;28;20085;-65
2021/09/05 07:37:48;;;;;;;15.88;9.75;;;;;;;21.35;67.42;98785.59;5026500;28;20398;-65
2021/09/05 07:40:15;;;;;;;17.75;10.18;;;;;;;21.74;66.80;98784.06;5026453;28;20033;-65
2021/09/05 07:42:41;;;;;;;15.20;9.50;;;;;;;21.66;66.62;98780.06;5026416;28;20049;-65
2021/09/05 07:45:07;;;;;;;18.58;9.43;;;;;;;23.05;63.82;98789.75;5026640;28;20049;-65
2021/09/05 07:47:32;;;;;;;13.27;9.13;;;;;;;23.87;60.29;98790.34;5026343;28;20021;-65
2021/09/05 07:49:58;;;;;;;14.45;9.20;;;;;;;24.39;59.84;98787.50;5026256;28;20013;-65
2021/09/05 07:52:24;;;;;;;13.98;9.35;;;;;;;24.13;60.92;98789.38;5026252;28;20025;-65
2021/09/05 07:54:50;;;;;;;14.93;9.27;;;;;;;24.32;60.06;98795.16;5026172;28;20216;-65
2021/09/05 07:57:15;;;;;;;14.68;9.38;;;;;;;23.44;61.40;98796.94;5026368;28;20025;-65
2021/09/05 07:59:41;;;;;;;14.52;9.93;;;;;;;23.35;62.49;98792.25;5026012;28;20060;-65
2021/09/05 08:02:06;;;;;;;18.13;10.35;;;;;;;23.95;60.44;98782.59;5008637;28;20028;-65
2021/09/05 08:04:31;;;;;;;16.42;10.13;;;;;;;25.09;57.71;98790.25;5025815;28;20041;-65
2021/09/05 08:06:57;;;;;;;13.63;9.38;;;;;;;25.10;56.31;98792.00;5025939;28;20022;-65
2021/09/05 08:09:22;;;;;;;12.23;9.35;;;;;;;25.51;56.11;98790.69;5025879;28;20221;-65
2021/09/05 08:11:48;;;;;;;15.13;9.48;;;;;;;26.18;51.83;98790.72;5025827;28;20021;-65
2021/09/05 08:14:13;;;;;;;13.60;9.23;;;;;;;25.53;54.08;98804.94;5025796;28;20301;-65
2021/09/05 08:16:39;;;;;;;12.50;8.63;;;;;;;25.92;54.67;98808.09;5025734;28;20022;-65
2021/09/05 08:19:04;;;;;;;13.68;9.40;;;;;;;24.63;54.70;98805.41;5025878;28;20375;-65
2021/09/05 08:21:30;;;;;;;14.65;9.27;;;;;;;25.13;56.25;98809.75;5025594;28;20041;-65
2021/09/05 08:23:55;;;;;;;14.02;9.30;;;;;;;26.14;52.73;98807.25;5025600;28;20089;-65
2021/09/05 08:26:23;;;;;;;15.13;8.98;;;;;;;26.31;53.07;98795.97;5025570;28;20042;-65
2021/09/05 08:28:49;;;;;;;14.68;9.48;;;;;;;26.28;52.47;98798.91;5024791;28;20290;-65
2021/09/05 08:31:14;;;;;;;12.75;9.20;;;;;;;27.18;52.00;98807.63;5025484;28;20014;-65
2021/09/05 08:33:39;;;;;;;12.68;9.43;;;;;;;27.02;50.35;98807.19;5025435;28;20028;-65
2021/09/05 08:36:05;;;;;;;19.08;8.75;;;;;;;27.15;51.20;98802.47;5025373;28;20013;-65
2021/09/05 08:38:32;;;;;;;11.10;8.02;;;;;;;28.09;48.41;98804.22;5025386;28;20033;-65
2021/09/05 08:40:58;;;;;;;13.77;8.60;;;;;;;27.22;50.74;98809.06;5025231;28;20028;-65
2021/09/05 08:43:23;;;;;;;12.65;8.23;;;;;;;27.83;48.96;98805.59;5025232;28;20085;-65
2021/09/05 08:45:49;;;;;;;12.10;8.07;;;;;;;27.47;48.83;98814.16;5025229;28;20249;-65
2021/09/05 08:48:19;;;;;;;12.57;8.38;;;;;;;26.33;51.81;98807.50;5007666;28;20026;-65
2021/09/05 08:50:47;;;;;;;13.70;8.98;;;;;;;27.00;49.89;98804.63;5025103;28;20265;-65
2021/09/05 08:53:13;;;;;;;13.20;8.95;;;;;;;26.45;51.75;98817.34;5025100;28;20018;-65
2021/09/05 08:55:38;;;;;;;17.95;9.80;;;;;;;27.40;50.08;98815.69;5024966;28;20021;-65
2021/09/05 08:58:04;;;;;;;12.95;8.30;;;;;;;27.89;50.15;98817.75;5024987;28;20022;-65
2021/09/05 09:00:29;;;;;;;14.63;8.98;;;;;;;28.28;49.29;98812.44;5024975;28;20097;-65
2021/09/05 09:02:56;;;;;;;13.88;9.32;;;;;;;27.21;51.89;98818.19;5024661;28;20088;-65
2021/09/05 09:05:39;;;;;;;12.95;8.90;;;;;;;27.37;51.26;98823.19;5025164;28;20022;-65
2021/09/05 09:08:13;;;;;;;12.02;8.85;;;;;;;27.93;48.04;98828.19;5024834;28;20049;-65
2021/09/05 09:10:48;;;;;;;15.48;8.60;;;;;;;27.43;49.11;98826.25;5024814;28;20044;-65
2021/09/05 09:13:35;;;;;;;12.68;9.02;;;;;;;26.67;51.65;98823.59;5024699;28;20025;-65
2021/09/05 09:16:10;;;;;;;12.48;8.18;;;;;;;26.91;51.97;98826.13;5024715;28;20022;-65
2021/09/05 09:18:38;;;;;;;11.43;7.90;;;;;;;27.04;51.28;98826.81;5024647;28;20262;-65
2021/09/05 09:21:08;;;;;;;11.57;8.98;;;;;;;27.58;49.05;98833.03;5024529;28;20033;-65
2021/09/05 09:23:35;;;;;;;13.88;8.80;;;;;;;26.49;51.75;98829.59;5024665;28;20026;-65
2021/09/05 09:26:03;;;;;;;12.65;8.32;;;;;;;26.36;51.29;98826.16;5024590;28;20213;-65
2021/09/05 09:28:32;;;;;;;10.13;7.55;;;;;;;26.05;51.54;98824.19;5024482;28;20105;-65
2021/09/05 09:31:01;;;;;;;11.25;7.97;;;;;;;25.77;53.57;98824.59;5024483;28;20029;-65
2021/09/05 09:33:28;;;;;;;15.10;8.07;;;;;;;26.82;49.69;98822.34;5024453;28;20021;-65
2021/09/05 09:35:58;;;;;;;15.68;8.65;;;;;;;27.30;49.05;98828.22;5024395;28;20025;-65
2021/09/05 09:38:24;;;;;;;14.05;8.45;;;;;;;27.46;48.15;98823.25;5024353;28;20220;-65
2021/09/05 09:41:03;;;;;;;11.50;8.02;;;;;;;26.65;50.41;98824.69;5023903;28;20092;-65
2021/09/05 09:43:28;;;;;;;13.32;7.63;;;;;;;27.30;47.42;98825.53;5024347;28;20025;-65
2021/09/05 09:46:11;;;;;;;11.45;7.22;;;;;;;28.18;47.53;98811.53;5024270;28;20025;-65
2021/09/05 09:48:42;;;;;;;9.20;6.75;;;;;;;28.54;46.41;98813.69;5024258;28;20025;-65
2021/09/05 09:51:08;;;;;;;14.70;7.45;;;;;;;28.72;43.24;98822.91;5024293;28;20325;-65
2021/09/05 09:53:35;;;;;;;10.80;7.18;;;;;;;28.77;44.37;98825.19;5024144;28;20033;-65
2021/09/05 09:56:01;;;;;;;12.13;7.25;;;;;;;28.65;45.93;98821.75;5024190;28;20022;-65
2021/09/05 09:58:26;;;;;;;11.05;7.32;;;;;;;28.80;45.80;98820.38;5024133;28;20089;-67
2021/09/05 10:00:53;;;;;;;10.02;7.07;;;;;;;28.40;45.25;98811.34;5024032;28;20030;-66
2021/09/05 10:03:20;;;;;;;19.38;7.18;;;;;;;29.10;43.82;98814.88;5023886;28;20038;-66
2021/09/05 10:05:45;;;;;;;9.70;6.85;;;;;;;29.03;44.59;98816.44;5024065;28;20032;-66
2021/09/05 10:08:11;;;;;;;10.57;6.95;;;;;;;28.94;44.57;98814.53;5024045;28;20026;-66
2021/09/05 10:10:37;;;;;;;9.90;6.20;;;;;;;29.82;43.95;98814.47;5024021;28;20018;-66
2021/09/05 10:13:02;;;;;;;8.98;6.43;;;;;;;29.29;44.04;98822.16;5023990;28;20096;-66
2021/09/05 10:15:28;;;;;;;11.40;6.72;;;;;;;29.36;44.37;98811.63;5023971;28;20025;-66
2021/09/05 10:17:54;;;;;;;12.35;6.80;;;;;;;29.68;45.03;98813.09;5024200;28;20371;-66
2021/09/05 10:20:22;;;;;;;13.85;7.10;;;;;;;29.42;43.77;98811.06;5023859;28;20025;-66
2021/09/05 10:22:49;;;;;;;14.00;6.65;;;;;;;29.01;43.19;98812.97;5023882;28;20373;-66
2021/09/05 10:25:16;;;;;;;9.80;6.47;;;;;;;29.55;42.95;98825.19;5023895;28;20078;-66
2021/09/05 10:27:48;;;;;;;9.30;7.13;;;;;;;29.18;43.00;98820.47;5024169;28;20021;-66
2021/09/05 10:30:19;;;;;;;9.95;6.85;;;;;;;28.99;45.19;98816.84;5023874;28;20018;-66
2021/09/05 10:32:51;;;;;;;9.40;6.38;;;;;;;29.14;44.29;98821.72;5024108;28;20091;-66
2021/09/05 10:35:25;;;;;;;11.20;6.63;;;;;;;29.59;45.23;98823.91;5023817;28;20021;-66
2021/09/05 10:38:09;;;;;;;10.90;6.45;;;;;;;29.70;42.76;98815.66;5023740;28;20347;-66
2021/09/05 10:40:40;;;;;;;8.95;6.30;;;;;;;29.09;46.59;98815.91;5023674;28;20022;-66
2021/09/05 10:43:06;;;;;;;8.60;6.55;;;;;;;29.05;44.91;98809.00;5023717;28;20022;-66
2021/09/05 10:45:34;;;;;;;9.15;6.15;;;;;;;29.00;44.78;98819.41;5023699;28;20028;-66
2021/09/05 10:48:00;;;;;;;12.30;6.78;;;;;;;28.85;43.96;98806.38;5023589;28;20213;-66
2021/09/05 10:50:36;;;;;;;10.95;6.38;;;;;;;28.92;42.62;98805.69;5023662;28;20359;-66
2021/09/05 10:53:23;;;;;;;8.95;6.65;;;;;;;29.23;45.07;98804.63;5027252;28;20025;-66
2021/09/05 10:56:21;;;;;;;9.73;6.45;;;;;;;29.47;43.38;98803.34;5027338;28;20357;-66
2021/09/05 10:58:51;;;;;;;9.45;5.93;;;;;;;29.28;44.48;98809.63;4983879;28;20097;-66
2021/09/05 11:01:46;;;;;;;8.60;6.18;;;;;;;29.24;43.09;98802.78;5027157;28;20343;-66
2021/09/05 11:04:11;;;;;;;10.75;6.43;;;;;;;28.84;45.42;98794.69;5025557;28;20054;-66
2021/09/05 11:06:44;;;;;;;10.88;6.50;;;;;;;29.31;44.19;98800.34;5027108;28;20030;-66
2021/09/05 11:09:20;;;;;;;8.63;5.78;;;;;;;29.23;44.17;98799.19;5009532;28;20029;-66
2021/09/05 11:11:58;;;;;;;11.15;6.43;;;;;;;29.11;45.02;98796.78;5009489;28;20076;-66
2021/09/05 11:14:56;;;;;;;9.93;5.60;;;;;;;29.19;45.94;98800.50;5027065;28;20017;-66
2021/09/05 11:17:27;;;;;;;12.73;6.63;;;;;;;28.78;42.91;98800.66;5026477;28;20105;-66
2021/09/05 11:19:57;;;;;;;13.40;6.45;;;;;;;28.39;42.17;98797.94;5026824;28;20124;-66
2021/09/05 11:22:24;;;;;;;8.90;6.07;;;;;;;28.25;44.02;98792.91;5026803;28;20089;-66
2021/09/05 11:25:08;;;;;;;8.55;5.63;;;;;;;28.03;44.52;98801.19;5026790;28;20026;-66
2021/09/05 11:27:34;;;;;;;10.93;5.90;;;;;;;28.55;43.62;98799.19;5026723;28;20032;-66
2021/09/05 11:30:02;;;;;;;10.20;6.03;;;;;;;28.45;43.35;98809.13;5026685;28;20022;-66